Time;durP1;ratioP1;P1;durP2;ratioP2;P2;SDS_P1;SDS_P2;PMS_P1;PMS_P2;Temp;Humidity;BMP_temperature;BMP_pressure;BME280_temperature;BME280_humidity;BME280_pressure;Samples;Min_cycle;Max_cycle;Signal;HPM_P1;HPM_P2
2021/11/25 00:01:57;;;;;;;10.43;6.70;;;9.50;96.30;;;;;;4972169;28;20076;-63
2021/11/25 00:04:23;;;;;;;11.18;7.13;;;9.60;96.40;;;;;;4964214;28;20097;-63
2021/11/25 00:06:49;;;;;;;11.35;7.18;;;9.50;96.10;;;;;;4960466;28;20039;-63
2021/11/25 00:09:15;;;;;;;10.90;6.85;;;9.50;96.10;;;;;;4972839;28;20019;-63
2021/11/25 00:11:40;;;;;;;13.52;8.55;;;9.50;96.20;;;;;;4974327;28;20059;-63
2021/11/25 00:14:06;;;;;;;11.15;6.90;;;9.50;96.20;;;;;;4974720;28;20307;-63
2021/11/25 00:16:32;;;;;;;10.88;6.47;;;9.50;96.00;;;;;;4975196;28;20058;-63
2021/11/25 00:18:57;;;;;;;10.45;6.35;;;9.50;95.80;;;;;;4973234;28;20023;-62
2021/11/25 00:21:23;;;;;;;12.00;6.63;;;9.50;95.80;;;;;;4971994;28;20042;-62
2021/11/25 00:23:49;;;;;;;9.00;6.00;;;9.50;95.80;;;;;;4957519;28;20035;-62
2021/11/25 00:26:17;;;;;;;8.63;5.47;;;9.50;95.80;;;;;;4974634;28;20094;-62
2021/11/25 00:28:43;;;;;;;9.18;5.63;;;9.50;95.80;;;;;;4974021;28;20636;-62
2021/11/25 00:31:09;;;;;;;10.93;6.75;;;9.50;95.70;;;;;;4974774;28;20193;-62
2021/11/25 00:33:35;;;;;;;9.02;5.50;;;9.50;95.60;;;;;;4974428;28;20050;-62
2021/11/25 00:36:02;;;;;;;8.73;5.40;;;9.50;95.50;;;;;;4972657;28;20030;-63
2021/11/25 00:38:28;;;;;;;8.43;5.57;;;9.50;95.40;;;;;;4974303;28;20537;-63
2021/11/25 00:40:53;;;;;;;9.48;5.40;;;9.50;95.30;;;;;;4974602;28;20031;-63
2021/11/25 00:43:21;;;;;;;8.15;5.20;;;9.50;95.20;;;;;;4974389;28;20051;-63
2021/11/25 00:45:47;;;;;;;8.75;5.22;;;9.50;95.20;;;;;;4973859;28;20033;-63
2021/11/25 00:48:13;;;;;;;8.27;4.85;;;9.50;95.10;;;;;;4974606;28;20033;-63
2021/11/25 00:50:39;;;;;;;7.15;4.85;;;9.50;95.00;;;;;;4973857;28;20031;-63
2021/11/25 00:53:05;;;;;;;7.95;5.40;;;9.40;94.80;;;;;;4965591;28;20038;-62
2021/11/25 00:55:30;;;;;;;8.70;5.07;;;9.40;94.60;;;;;;4954890;28;20510;-63
2021/11/25 00:57:56;;;;;;;7.75;4.40;;;9.40;94.40;;;;;;4973926;28;20049;-62
2021/11/25 01:00:23;;;;;;;6.47;3.80;;;9.40;94.40;;;;;;4973854;28;20423;-62
2021/11/25 01:02:50;;;;;;;5.05;3.72;;;9.40;94.20;;;;;;4974141;28;20129;-62
2021/11/25 01:05:18;;;;;;;6.38;4.55;;;9.40;94.20;;;;;;4973799;28;20027;-62
2021/11/25 01:07:45;;;;;;;6.00;3.97;;;9.40;93.90;;;;;;4974082;28;20474;-62
2021/11/25 01:10:13;;;;;;;5.70;4.43;;;9.40;93.80;;;;;;4963111;28;20035;-62
2021/11/25 01:12:39;;;;;;;6.53;4.28;;;9.40;93.60;;;;;;4968896;28;20030;-62
2021/11/25 01:15:07;;;;;;;6.78;4.82;;;9.40;93.80;;;;;;4972446;28;20470;-62
2021/11/25 01:17:33;;;;;;;6.70;4.22;;;9.40;93.60;;;;;;4973205;28;20034;-63
2021/11/25 01:19:58;;;;;;;5.63;4.25;;;9.40;93.60;;;;;;4972067;28;20031;-62
2021/11/25 01:22:24;;;;;;;7.93;4.90;;;9.40;93.50;;;;;;4973582;28;20030;-62
2021/11/25 01:24:50;;;;;;;6.18;4.70;;;9.40;93.60;;;;;;4959593;28;20478;-63
2021/11/25 01:27:16;;;;;;;7.22;4.60;;;9.40;93.70;;;;;;4956047;28;20054;-63
2021/11/25 01:29:42;;;;;;;8.20;4.60;;;9.40;93.50;;;;;;4973130;28;20045;-62
2021/11/25 01:32:08;;;;;;;7.78;5.40;;;9.40;93.40;;;;;;4972717;28;20027;-63
2021/11/25 01:34:34;;;;;;;7.25;4.78;;;9.40;93.60;;;;;;4973054;28;20585;-63
2021/11/25 01:36:59;;;;;;;7.95;4.80;;;9.40;93.50;;;;;;4972675;28;20031;-63
2021/11/25 01:39:25;;;;;;;7.63;4.68;;;9.30;93.60;;;;;;4972998;28;20026;-63
2021/11/25 01:41:51;;;;;;;6.70;4.35;;;9.30;93.50;;;;;;4972757;28;20085;-63
2021/11/25 01:44:17;;;;;;;6.28;4.60;;;9.30;93.60;;;;;;4972143;28;20032;-63
2021/11/25 01:46:43;;;;;;;8.00;5.15;;;9.30;93.60;;;;;;4972254;28;20027;-63
2021/11/25 01:49:08;;;;;;;6.47;4.60;;;9.30;93.50;;;;;;4972945;28;20033;-63
2021/11/25 01:51:34;;;;;;;7.10;4.60;;;9.30;93.50;;;;;;4973279;28;20551;-63
2021/11/25 01:54:00;;;;;;;7.40;4.97;;;9.30;93.60;;;;;;4973236;28;20062;-63
2021/11/25 01:56:26;;;;;;;7.07;5.28;;;9.30;93.50;;;;;;4955654;28;20047;-62
2021/11/25 01:58:51;;;;;;;6.90;4.60;;;9.30;93.70;;;;;;4972371;28;20093;-63
2021/11/25 02:01:20;;;;;;;6.72;4.70;;;9.30;93.40;;;;;;4973340;28;20038;-63
2021/11/25 02:03:47;;;;;;;6.43;4.43;;;9.30;93.30;;;;;;4969682;28;20039;-63
2021/11/25 02:06:14;;;;;;;7.05;5.00;;;9.30;93.20;;;;;;4970795;28;20022;-63
2021/11/25 02:08:40;;;;;;;6.47;4.80;;;9.30;93.10;;;;;;4967260;28;20042;-62
2021/11/25 02:11:07;;;;;;;8.52;5.07;;;9.30;93.10;;;;;;4972162;28;20029;-63
2021/11/25 02:13:33;;;;;;;9.52;5.95;;;9.30;93.10;;;;;;4973378;28;20030;-63
2021/11/25 02:15:59;;;;;;;8.65;6.10;;;9.30;93.10;;;;;;4970979;28;20038;-63
2021/11/25 02:18:26;;;;;;;8.55;6.25;;;9.20;93.00;;;;;;4961210;28;20034;-63
2021/11/25 02:20:54;;;;;;;11.70;7.43;;;9.20;93.00;;;;;;4970898;28;20031;-63
2021/11/25 02:23:22;;;;;;;10.35;7.22;;;9.20;93.00;;;;;;4953661;29;20039;-63
2021/11/25 02:25:49;;;;;;;9.15;6.88;;;9.20;92.90;;;;;;4970565;28;20066;-63
2021/11/25 02:28:26;;;;;;;11.00;8.00;;;9.20;92.80;;;;;;4967321;28;20118;-63
2021/11/25 02:30:52;;;;;;;10.20;7.65;;;9.10;92.70;;;;;;4966017;28;20042;-62
2021/11/25 02:33:18;;;;;;;10.52;8.18;;;9.00;92.60;;;;;;4973101;28;20030;-62
2021/11/25 02:35:45;;;;;;;10.30;8.00;;;9.00;92.60;;;;;;4971340;28;20038;-62
2021/11/25 02:38:11;;;;;;;12.13;8.00;;;9.00;92.60;;;;;;4955552;28;20037;-62
2021/11/25 02:40:46;;;;;;;12.38;8.80;;;9.00;92.60;;;;;;4970933;28;20093;-62
2021/11/25 02:43:15;;;;;;;11.15;8.32;;;9.00;92.60;;;;;;4972936;28;20058;-62
2021/11/25 02:46:02;;;;;;;14.52;9.13;;;9.00;92.60;;;;;;4965140;28;20035;-62
2021/11/25 02:48:31;;;;;;;14.27;10.88;;;9.00;92.60;;;;;;4971615;28;20034;-62
2021/11/25 02:51:00;;;;;;;13.20;10.10;;;8.90;92.50;;;;;;4971935;28;20046;-63
2021/11/25 02:53:28;;;;;;;13.27;9.95;;;8.90;92.60;;;;;;4972206;28;20023;-62
2021/11/25 02:56:00;;;;;;;15.00;10.35;;;9.00;92.50;;;;;;4971087;28;20039;-62
2021/11/25 02:58:26;;;;;;;14.77;10.63;;;9.00;92.40;;;;;;4967818;28;20026;-62
2021/11/25 03:00:54;;;;;;;12.35;9.90;;;8.90;92.40;;;;;;4969936;28;20030;-62
2021/11/25 03:03:20;;;;;;;16.33;11.13;;;8.90;92.40;;;;;;4961793;28;20039;-63
2021/11/25 03:05:49;;;;;;;15.90;12.38;;;8.90;92.40;;;;;;4969206;28;20114;-63
2021/11/25 03:08:16;;;;;;;14.65;11.43;;;8.90;92.20;;;;;;4972825;28;20027;-63
2021/11/25 03:10:48;;;;;;;15.68;11.82;;;8.90;92.20;;;;;;4970908;28;20093;-63
2021/11/25 03:13:16;;;;;;;16.95;12.13;;;8.80;92.00;;;;;;4954513;28;20034;-63
2021/11/25 03:15:42;;;;;;;16.48;12.63;;;8.80;92.00;;;;;;4968242;28;20023;-63
2021/11/25 03:18:09;;;;;;;16.45;12.02;;;8.70;91.90;;;;;;4953735;28;20065;-63
2021/11/25 03:20:37;;;;;;;17.88;13.50;;;8.70;91.70;;;;;;4970952;28;20035;-63
2021/11/25 03:23:07;;;;;;;18.42;13.52;;;8.70;91.70;;;;;;4971957;28;20054;-62
2021/11/25 03:25:34;;;;;;;17.77;14.20;;;8.70;91.50;;;;;;4971238;28;20035;-63
2021/11/25 03:28:00;;;;;;;19.08;13.52;;;8.60;91.40;;;;;;4972409;28;20034;-63
2021/11/25 03:30:26;;;;;;;17.10;12.13;;;8.60;91.40;;;;;;4971152;28;20034;-63
2021/11/25 03:32:52;;;;;;;17.85;12.75;;;8.60;91.20;;;;;;4970595;28;20030;-63
2021/11/25 03:35:18;;;;;;;18.63;13.02;;;8.60;91.40;;;;;;4971368;28;20089;-63
2021/11/25 03:37:44;;;;;;;18.85;13.80;;;8.60;91.10;;;;;;4968014;28;20861;-63
2021/11/25 03:40:10;;;;;;;18.90;13.27;;;8.60;91.10;;;;;;4951236;28;20473;-63
2021/11/25 03:42:36;;;;;;;19.10;13.27;;;8.50;91.00;;;;;;4957747;28;20039;-63
2021/11/25 03:45:03;;;;;;;21.45;13.63;;;8.50;91.10;;;;;;4975145;28;20461;-63
2021/11/25 03:47:29;;;;;;;19.70;14.02;;;8.60;91.10;;;;;;4975294;28;20035;-63
2021/11/25 03:49:54;;;;;;;18.75;13.25;;;8.50;91.10;;;;;;4970851;28;20034;-63
2021/11/25 03:52:20;;;;;;;19.42;13.20;;;8.60;91.10;;;;;;4956203;29;20113;-63
2021/11/25 03:54:46;;;;;;;20.73;14.90;;;8.50;91.00;;;;;;4973965;28;20488;-63
2021/11/25 03:57:12;;;;;;;15.73;12.48;;;8.60;91.00;;;;;;4975399;28;20054;-63
2021/11/25 03:59:38;;;;;;;19.05;13.55;;;8.60;90.90;;;;;;4974605;28;20027;-63
2021/11/25 04:02:04;;;;;;;17.58;12.93;;;8.60;90.80;;;;;;4975621;28;20137;-63
2021/11/25 04:04:30;;;;;;;19.88;14.25;;;8.60;90.80;;;;;;4971007;28;20037;-64
2021/11/25 04:06:55;;;;;;;19.42;14.38;;;8.60;90.70;;;;;;4956140;29;20058;-63
2021/11/25 04:09:21;;;;;;;20.80;14.07;;;8.60;90.90;;;;;;4951708;28;20070;-63
2021/11/25 04:11:46;;;;;;;19.88;14.07;;;8.70;90.70;;;;;;4975390;28;20030;-63
2021/11/25 04:14:12;;;;;;;21.05;15.30;;;8.60;90.70;;;;;;4973885;28;20102;-63
2021/11/25 04:16:38;;;;;;;22.30;14.90;;;8.60;90.60;;;;;;4975580;28;20496;-63
2021/11/25 04:19:03;;;;;;;22.13;14.43;;;8.60;90.60;;;;;;4974293;28;20109;-63
2021/11/25 04:21:29;;;;;;;21.52;14.70;;;8.60;90.60;;;;;;4970128;28;20398;-63
2021/11/25 04:23:54;;;;;;;25.02;16.40;;;8.60;90.60;;;;;;4974406;28;20545;-63
2021/11/25 04:26:20;;;;;;;22.75;16.08;;;8.60;90.60;;;;;;4975010;28;20033;-63
2021/11/25 04:28:46;;;;;;;22.75;15.98;;;8.50;90.60;;;;;;4974461;28;20035;-63
2021/11/25 04:36:41;;;;;;;22.33;16.05;;;8.50;90.70;;;;;;4962833;28;20046;-63
2021/11/25 04:39:08;;;;;;;20.52;14.88;;;8.40;90.80;;;;;;4973295;28;20026;-63
2021/11/25 04:41:35;;;;;;;23.42;16.58;;;8.40;90.70;;;;;;4974768;28;20069;-63
2021/11/25 04:44:01;;;;;;;25.70;17.88;;;8.40;90.70;;;;;;4973471;28;20038;-63
2021/11/25 04:46:28;;;;;;;25.58;17.38;;;8.40;90.70;;;;;;4974217;28;20029;-63
2021/11/25 04:48:54;;;;;;;25.13;17.33;;;8.40;90.70;;;;;;4974079;28;20081;-63
2021/11/25 04:51:19;;;;;;;28.33;18.75;;;8.40;90.70;;;;;;4973899;28;20030;-63
2021/11/25 04:53:46;;;;;;;28.20;19.00;;;8.40;90.60;;;;;;4972977;28;20026;-63
2021/11/25 04:56:11;;;;;;;25.38;16.85;;;8.40;90.60;;;;;;4973837;28;20063;-62
2021/11/25 04:58:37;;;;;;;28.48;18.88;;;8.30;90.60;;;;;;4956422;28;20032;-63
2021/11/25 05:01:03;;;;;;;27.60;19.45;;;8.40;90.60;;;;;;4973141;28;20085;-63
2021/11/25 05:03:28;;;;;;;28.95;17.83;;;8.30;90.50;;;;;;4973224;28;20446;-63
2021/11/25 05:05:54;;;;;;;27.50;17.63;;;8.30;90.50;;;;;;4973953;28;20026;-63
2021/11/25 05:08:21;;;;;;;27.52;17.40;;;8.30;90.50;;;;;;4973783;28;20039;-62
2021/11/25 05:10:47;;;;;;;28.10;18.23;;;8.30;90.50;;;;;;4958464;28;20023;-62
2021/11/25 05:13:13;;;;;;;25.60;17.15;;;8.30;90.50;;;;;;4970342;28;20097;-62
2021/11/25 05:15:38;;;;;;;26.90;18.02;;;8.40;90.60;;;;;;4973029;28;20581;-62
2021/11/25 05:18:05;;;;;;;28.50;18.67;;;8.40;90.60;;;;;;4967500;28;20039;-62
2021/11/25 05:20:31;;;;;;;26.42;19.10;;;8.40;90.60;;;;;;4964560;28;20035;-62
2021/11/25 05:22:57;;;;;;;28.13;18.67;;;8.40;90.60;;;;;;4962459;28;20118;-62
2021/11/25 05:25:23;;;;;;;28.65;18.65;;;8.40;90.50;;;;;;4964019;28;20111;-62
2021/11/25 05:27:49;;;;;;;26.70;17.77;;;8.40;90.40;;;;;;4957419;28;20034;-63
2021/11/25 05:30:16;;;;;;;28.38;19.08;;;8.40;90.40;;;;;;4972618;28;20046;-63
2021/11/25 05:32:43;;;;;;;28.95;19.13;;;8.40;90.50;;;;;;4973228;28;20030;-63
2021/11/25 05:35:09;;;;;;;28.70;19.75;;;8.30;90.50;;;;;;4973386;28;20037;-62
2021/11/25 05:37:35;;;;;;;25.45;17.65;;;8.30;90.60;;;;;;4973005;28;20110;-62
2021/11/25 05:40:03;;;;;;;26.35;18.60;;;8.30;90.60;;;;;;4972982;28;20521;-62
2021/11/25 05:42:30;;;;;;;28.27;17.65;;;8.30;90.50;;;;;;4972727;28;20647;-62
2021/11/25 05:44:57;;;;;;;26.05;17.92;;;8.20;90.50;;;;;;4972603;28;20055;-62
2021/11/25 05:47:23;;;;;;;28.65;18.70;;;8.30;90.60;;;;;;4955378;28;20042;-62
2021/11/25 05:49:49;;;;;;;29.70;18.75;;;8.30;90.60;;;;;;4955320;28;20031;-62
2021/11/25 05:52:14;;;;;;;28.42;19.33;;;8.20;90.80;;;;;;4973141;28;20097;-63
2021/11/25 05:54:40;;;;;;;28.90;19.15;;;8.20;90.60;;;;;;4971735;28;20062;-62
2021/11/25 05:57:06;;;;;;;26.88;17.90;;;8.20;90.60;;;;;;4972983;28;20130;-62
2021/11/25 05:59:31;;;;;;;28.65;18.70;;;8.20;90.70;;;;;;4972275;28;20022;-62
2021/11/25 06:01:57;;;;;;;28.63;19.40;;;8.20;90.70;;;;;;4958307;28;20031;-62
2021/11/25 06:04:22;;;;;;;27.55;18.83;;;8.20;90.80;;;;;;4971601;28;20035;-62
2021/11/25 06:06:48;;;;;;;27.45;18.90;;;8.20;90.80;;;;;;4972465;28;20457;-62
2021/11/25 06:09:14;;;;;;;29.50;20.38;;;8.20;90.90;;;;;;4972255;28;20034;-62
2021/11/25 06:11:39;;;;;;;27.88;18.23;;;8.20;90.90;;;;;;4970949;28;20192;-62
2021/11/25 06:14:05;;;;;;;26.52;18.85;;;8.30;90.90;;;;;;4942077;28;20031;-62
2021/11/25 06:16:31;;;;;;;30.00;18.77;;;8.30;90.90;;;;;;4953690;28;20071;-62
2021/11/25 06:18:56;;;;;;;27.58;17.65;;;8.30;91.00;;;;;;4966087;28;20031;-62
2021/11/25 06:21:22;;;;;;;26.55;18.63;;;8.30;91.00;;;;;;4954823;28;20038;-62
2021/11/25 06:23:47;;;;;;;27.52;18.52;;;8.30;91.00;;;;;;4971615;28;20145;-62
2021/11/25 06:26:13;;;;;;;27.60;18.75;;;8.30;90.90;;;;;;4972230;28;20541;-62
2021/11/25 06:28:39;;;;;;;26.08;18.25;;;8.30;90.90;;;;;;4969442;28;20035;-62
2021/11/25 06:31:04;;;;;;;26.42;17.77;;;8.40;91.00;;;;;;4972975;28;20031;-62
2021/11/25 06:33:30;;;;;;;27.55;19.20;;;8.30;90.90;;;;;;4972463;28;20058;-62
2021/11/25 06:35:55;;;;;;;29.77;18.27;;;8.30;90.90;;;;;;4970684;28;20041;-62
2021/11/25 06:38:21;;;;;;;28.15;19.55;;;8.30;90.90;;;;;;4972049;28;20045;-63
2021/11/25 06:40:47;;;;;;;28.63;18.80;;;8.30;91.00;;;;;;4971691;28;20078;-63
2021/11/25 06:43:13;;;;;;;27.58;18.33;;;8.30;91.00;;;;;;4971639;28;20034;-63
2021/11/25 06:45:41;;;;;;;26.05;18.48;;;8.30;91.00;;;;;;4971399;28;20402;-62
2021/11/25 06:48:07;;;;;;;26.42;18.40;;;8.20;91.00;;;;;;4971740;28;20038;-62
2021/11/25 06:50:33;;;;;;;28.15;18.25;;;8.20;91.00;;;;;;4971180;28;20367;-62
2021/11/25 06:52:58;;;;;;;28.05;19.50;;;8.20;91.00;;;;;;4971858;28;20057;-61
2021/11/25 06:55:25;;;;;;;30.08;19.15;;;8.20;91.10;;;;;;4971011;28;20038;-62
2021/11/25 06:57:51;;;;;;;30.83;20.75;;;8.10;91.00;;;;;;4968323;28;20042;-62
2021/11/25 07:00:22;;;;;;;29.92;19.20;;;8.10;91.10;;;;;;4971382;28;20109;-62
2021/11/25 07:02:49;;;;;;;28.75;18.75;;;8.10;91.10;;;;;;4971746;28;20038;-63
2021/11/25 07:05:14;;;;;;;29.48;18.25;;;8.00;91.10;;;;;;4971296;28;20046;-63
2021/11/25 07:07:42;;;;;;;28.02;19.27;;;8.00;91.10;;;;;;4954181;28;20112;-63
2021/11/25 07:10:09;;;;;;;32.33;18.58;;;8.00;91.10;;;;;;4970400;28;20066;-62
2021/11/25 07:12:35;;;;;;;28.35;19.05;;;8.00;91.10;;;;;;4972510;28;20423;-63
2021/11/25 07:15:03;;;;;;;30.35;18.88;;;8.00;91.20;;;;;;4954165;28;20031;-62
2021/11/25 07:17:29;;;;;;;27.25;18.67;;;7.90;91.20;;;;;;4972003;28;20038;-62
2021/11/25 07:19:54;;;;;;;29.50;19.85;;;7.90;91.20;;;;;;4971095;28;20023;-63
2021/11/25 07:22:20;;;;;;;28.75;18.55;;;8.00;91.20;;;;;;4971983;28;20035;-63
2021/11/25 07:24:46;;;;;;;27.63;18.90;;;8.00;91.20;;;;;;4969035;28;20027;-63
2021/11/25 07:27:12;;;;;;;29.98;19.80;;;7.90;91.20;;;;;;4959448;28;20027;-62
2021/11/25 07:29:38;;;;;;;28.52;18.45;;;8.00;91.20;;;;;;4968653;28;20035;-63
2021/11/25 07:32:04;;;;;;;28.67;19.90;;;8.00;91.30;;;;;;4958228;28;20489;-63
2021/11/25 07:34:30;;;;;;;29.98;18.60;;;7.90;91.30;;;;;;4964146;28;20411;-63
2021/11/25 07:36:55;;;;;;;29.27;18.42;;;7.90;91.30;;;;;;4959907;28;20343;-63
2021/11/25 07:39:24;;;;;;;30.02;19.33;;;8.00;91.30;;;;;;4938384;29;20387;-63
2021/11/25 07:41:49;;;;;;;28.27;18.85;;;7.90;91.20;;;;;;4955006;28;20027;-64
2021/11/25 07:44:15;;;;;;;30.73;18.85;;;7.90;91.20;;;;;;4960712;28;20122;-64
2021/11/25 07:46:41;;;;;;;28.08;18.35;;;7.90;91.30;;;;;;4962094;28;20114;-63
2021/11/25 07:49:07;;;;;;;29.30;19.48;;;8.00;91.30;;;;;;4969465;28;20381;-63
2021/11/25 07:51:32;;;;;;;27.88;18.67;;;8.00;91.30;;;;;;4958004;28;20074;-63
2021/11/25 07:54:00;;;;;;;27.25;17.55;;;8.00;91.30;;;;;;4959096;28;20098;-63
2021/11/25 07:56:26;;;;;;;27.13;16.85;;;8.00;91.30;;;;;;4966387;28;20050;-63
2021/11/25 07:58:52;;;;;;;32.80;19.00;;;8.00;91.30;;;;;;4964522;28;20023;-63
2021/11/25 08:01:17;;;;;;;29.13;17.52;;;8.10;91.30;;;;;;4967070;28;20039;-63
2021/11/25 08:03:43;;;;;;;26.83;17.88;;;8.10;91.40;;;;;;4952898;28;20475;-63
2021/11/25 08:06:09;;;;;;;27.73;17.25;;;8.20;91.20;;;;;;4961614;28;20024;-63
2021/11/25 08:08:34;;;;;;;25.52;17.73;;;8.20;91.20;;;;;;4959323;28;20137;-64
2021/11/25 08:11:02;;;;;;;25.50;16.83;;;8.30;91.20;;;;;;4963257;28;20026;-64
2021/11/25 08:13:30;;;;;;;27.17;18.02;;;8.30;91.20;;;;;;4954820;28;20035;-64
2021/11/25 08:15:56;;;;;;;29.98;18.40;;;8.30;91.10;;;;;;4967147;28;20035;-64
2021/11/25 08:18:22;;;;;;;30.83;19.15;;;8.30;91.10;;;;;;4955804;28;20038;-64
2021/11/25 08:20:48;;;;;;;27.42;17.65;;;8.30;91.10;;;;;;4964826;28;20096;-63
2021/11/25 08:23:14;;;;;;;29.02;18.15;;;8.40;91.10;;;;;;4953103;28;20549;-63
2021/11/25 08:25:40;;;;;;;28.67;18.10;;;8.40;91.10;;;;;;4963672;28;20084;-64
2021/11/25 08:28:05;;;;;;;26.52;17.90;;;8.40;91.00;;;;;;4955751;28;20117;-65
2021/11/25 08:30:31;;;;;;;25.15;16.60;;;8.40;91.00;;;;;;4967606;28;20050;-63
2021/11/25 08:32:57;;;;;;;27.73;19.38;;;8.40;91.10;;;;;;4965063;28;20038;-64
2021/11/25 08:35:24;;;;;;;25.15;17.00;;;8.40;91.00;;;;;;4961035;28;20031;-65
2021/11/25 08:37:49;;;;;;;27.10;17.17;;;8.30;91.00;;;;;;4973585;28;20101;-64
2021/11/25 08:40:16;;;;;;;25.75;17.20;;;8.30;91.00;;;;;;4972330;28;20466;-63
2021/11/25 08:42:43;;;;;;;25.48;16.73;;;8.30;91.00;;;;;;4969377;28;20042;-63
2021/11/25 08:45:09;;;;;;;29.17;18.02;;;8.30;90.90;;;;;;4961612;28;20171;-64
2021/11/25 08:47:36;;;;;;;27.48;17.45;;;8.30;91.00;;;;;;4974777;28;20022;-63
2021/11/25 08:50:03;;;;;;;28.35;17.23;;;8.40;91.00;;;;;;4963015;28;20031;-64
2021/11/25 08:52:29;;;;;;;30.60;17.30;;;8.40;91.00;;;;;;4958947;28;20031;-64
2021/11/25 08:54:55;;;;;;;29.33;18.75;;;8.40;90.90;;;;;;4971922;28;20041;-64
2021/11/25 08:57:20;;;;;;;24.10;16.27;;;8.40;91.00;;;;;;4963523;28;20073;-65
2021/11/25 08:59:46;;;;;;;28.30;18.08;;;8.40;90.90;;;;;;4962845;28;20031;-64
2021/11/25 09:02:12;;;;;;;27.90;17.40;;;8.40;90.90;;;;;;4972618;28;20049;-64
2021/11/25 09:04:38;;;;;;;25.85;17.10;;;8.40;90.90;;;;;;4961343;28;20031;-65
2021/11/25 09:07:04;;;;;;;30.60;17.92;;;8.50;90.90;;;;;;4963433;28;20030;-64
2021/11/25 09:09:30;;;;;;;28.33;19.00;;;8.50;90.90;;;;;;4971140;28;20031;-63
2021/11/25 09:11:55;;;;;;;28.90;17.60;;;8.50;90.90;;;;;;4937182;28;20204;-64
2021/11/25 09:14:21;;;;;;;27.58;17.55;;;8.50;90.90;;;;;;4971840;28;20034;-64
2021/11/25 09:16:47;;;;;;;26.38;17.13;;;8.60;90.80;;;;;;4965015;28;20034;-63
2021/11/25 09:19:13;;;;;;;27.20;17.55;;;8.60;90.70;;;;;;4958263;28;20082;-64
2021/11/25 09:21:39;;;;;;;29.88;18.27;;;8.70;90.60;;;;;;4954822;28;20130;-64
2021/11/25 09:24:07;;;;;;;25.05;17.50;;;8.70;90.60;;;;;;4970998;28;20034;-64
2021/11/25 09:26:35;;;;;;;26.42;17.85;;;8.80;90.60;;;;;;4964238;28;20173;-63
2021/11/25 09:29:01;;;;;;;27.80;17.10;;;8.80;90.50;;;;;;4966349;28;20819;-64
2021/11/25 09:31:32;;;;;;;29.20;19.75;;;8.80;90.50;;;;;;4962578;28;20035;-63
2021/11/25 09:33:59;;;;;;;32.50;20.75;;;8.80;90.50;;;;;;4955026;28;20042;-63
2021/11/25 09:36:27;;;;;;;27.75;17.45;;;8.80;90.50;;;;;;4965360;28;20039;-63
2021/11/25 09:38:53;;;;;;;27.00;16.98;;;8.80;90.60;;;;;;4970246;28;20415;-63
2021/11/25 09:41:28;;;;;;;25.20;17.27;;;8.90;90.50;;;;;;4957663;28;20077;-62
2021/11/25 09:43:55;;;;;;;25.40;17.90;;;8.90;90.40;;;;;;4970095;28;20066;-62
2021/11/25 09:46:23;;;;;;;23.23;16.92;;;8.90;90.30;;;;;;4954738;28;20023;-63
2021/11/25 09:48:49;;;;;;;26.85;17.67;;;8.90;90.20;;;;;;4963254;28;20114;-63
2021/11/25 09:51:16;;;;;;;28.90;17.80;;;8.90;90.20;;;;;;4955151;28;20055;-63
2021/11/25 09:53:42;;;;;;;26.17;17.83;;;9.00;90.30;;;;;;4970066;28;20034;-64
2021/11/25 09:56:09;;;;;;;31.00;18.58;;;9.00;90.20;;;;;;4953757;28;20035;-63
2021/11/25 09:58:36;;;;;;;25.52;17.17;;;9.00;90.20;;;;;;4962537;28;20117;-64
2021/11/25 10:01:05;;;;;;;28.05;17.20;;;9.10;90.20;;;;;;4965088;28;20034;-63
2021/11/25 10:03:33;;;;;;;25.40;17.05;;;9.10;90.10;;;;;;4967084;28;20451;-63
2021/11/25 10:06:00;;;;;;;22.80;15.27;;;9.10;90.10;;;;;;4963537;28;20071;-64
2021/11/25 10:08:34;;;;;;;26.10;15.70;;;9.10;90.00;;;;;;4966807;28;20031;-64
2021/11/25 10:11:04;;;;;;;26.95;16.60;;;9.10;90.00;;;;;;4961267;28;20029;-64
2021/11/25 10:13:39;;;;;;;22.85;15.98;;;9.10;90.00;;;;;;4969498;28;20022;-64
2021/11/25 10:16:08;;;;;;;;;;;9.10;90.10;;;;;;4971536;28;20031;-65
2021/11/25 10:18:35;;;;;;;24.63;16.50;;;9.20;90.30;;;;;;4970007;28;20010;-64
2021/11/25 10:21:08;;;;;;;24.95;16.73;;;9.20;90.10;;;;;;4960673;28;20042;-65
2021/11/25 10:23:35;;;;;;;25.55;16.23;;;9.10;90.10;;;;;;4960622;28;20046;-65
2021/11/25 10:26:11;;;;;;;26.05;16.77;;;9.20;90.10;;;;;;4957924;28;20035;-63
2021/11/25 10:28:43;;;;;;;26.75;17.67;;;9.20;90.10;;;;;;4957858;28;20487;-64
2021/11/25 10:31:13;;;;;;;26.65;17.52;;;9.20;90.10;;;;;;4961549;28;20029;-63
2021/11/25 10:33:56;;;;;;;24.83;17.75;;;9.10;90.30;;;;;;4955812;28;20061;-65
2021/11/25 10:41:21;;;;;;;26.05;17.13;;;8.90;90.30;;;;;;4968199;28;20103;-64
2021/11/25 10:44:01;;;;;;;27.90;18.23;;;8.90;90.40;;;;;;4960715;28;20513;-64
2021/11/25 10:46:40;;;;;;;27.60;17.05;;;8.80;90.40;;;;;;4971689;28;20097;-64
2021/11/25 10:49:06;;;;;;;26.65;17.40;;;8.80;90.50;;;;;;4965345;28;20030;-64
2021/11/25 10:51:34;;;;;;;28.02;17.35;;;8.80;90.40;;;;;;4965474;28;20030;-64
2021/11/25 10:54:09;;;;;;;23.33;15.75;;;8.90;90.40;;;;;;4970132;28;20045;-65
2021/11/25 10:56:55;;;;;;;29.15;16.33;;;8.90;90.30;;;;;;4961884;28;20074;-65
2021/11/25 10:59:35;;;;;;;27.80;17.40;;;8.90;90.30;;;;;;4966021;28;20053;-65
2021/11/25 11:02:00;;;;;;;22.55;15.52;;;8.90;90.20;;;;;;4967546;28;20561;-64
2021/11/25 11:04:28;;;;;;;25.63;15.15;;;8.90;90.20;;;;;;4963348;28;20118;-63
2021/11/25 11:06:55;;;;;;;24.55;16.17;;;8.90;90.20;;;;;;4960305;28;20074;-64
2021/11/25 11:09:30;;;;;;;24.33;16.15;;;8.90;90.20;;;;;;4963160;28;20066;-63
2021/11/25 11:12:40;;;;;;;26.77;16.75;;;8.90;90.20;;;;;;4967352;28;20058;-64
2021/11/25 11:15:27;;;;;;;26.73;16.00;;;8.90;90.20;;;;;;4969483;28;20434;-64
2021/11/25 11:20:25;;;;;;;29.23;17.25;;;8.90;90.20;;;;;;4963490;28;20410;-63
2021/11/25 11:22:54;;;;;;;23.70;15.57;;;8.90;90.10;;;;;;4952907;28;20124;-66
2021/11/25 11:25:22;;;;;;;28.27;17.20;;;8.90;90.20;;;;;;4964265;28;20031;-65
2021/11/25 11:27:50;;;;;;;26.95;16.50;;;8.80;90.20;;;;;;4952483;28;20035;-64
2021/11/25 11:30:16;;;;;;;31.45;18.38;;;8.90;90.30;;;;;;4958850;28;20066;-66
2021/11/25 11:32:43;;;;;;;33.08;18.77;;;8.90;90.30;;;;;;4960443;28;20062;-66
2021/11/25 11:35:09;;;;;;;32.75;19.25;;;8.90;90.50;;;;;;4963099;28;20018;-66
2021/11/25 11:37:36;;;;;;;30.23;18.38;;;8.90;90.30;;;;;;4972070;28;20030;-66
2021/11/25 11:40:04;;;;;;;30.13;19.25;;;8.90;90.40;;;;;;4972148;28;20498;-68
2021/11/25 11:42:30;;;;;;;29.52;19.05;;;8.80;90.40;;;;;;4971808;28;20433;-65
2021/11/25 11:44:56;;;;;;;31.27;17.90;;;8.80;90.40;;;;;;4954783;28;20026;-65
2021/11/25 11:47:24;;;;;;;31.33;18.45;;;8.80;90.40;;;;;;4971564;28;20038;-65
2021/11/25 11:49:50;;;;;;;30.40;18.17;;;8.80;90.40;;;;;;4971815;28;20478;-65
2021/11/25 11:52:19;;;;;;;29.77;19.67;;;8.80;90.40;;;;;;4971202;28;20041;-65
2021/11/25 11:54:51;;;;;;;31.33;18.02;;;8.80;90.30;;;;;;4971733;28;20476;-64
2021/11/25 11:57:38;;;;;;;28.33;18.77;;;8.80;90.40;;;;;;4949474;29;20045;-65
2021/11/25 12:00:19;;;;;;;31.33;19.75;;;8.90;90.40;;;;;;4951508;29;20491;-65
2021/11/25 12:02:46;;;;;;;29.23;18.52;;;8.90;90.30;;;;;;4954233;28;20260;-65
2021/11/25 12:05:40;;;;;;;28.27;18.15;;;8.90;90.30;;;;;;4952837;28;20035;-65
2021/11/25 12:08:21;;;;;;;29.48;18.90;;;8.80;90.40;;;;;;4955364;28;20034;-65
2021/11/25 12:10:56;;;;;;;30.65;19.25;;;8.90;90.40;;;;;;4956836;29;20189;-65
2021/11/25 12:13:22;;;;;;;;;;;8.80;90.40;;;;;;4954674;28;20508;-64
2021/11/25 12:15:47;;;;;;;32.33;18.60;;;8.80;90.50;;;;;;4956129;28;19906;-65
2021/11/25 12:18:34;;;;;;;30.17;20.95;;;8.80;90.50;;;;;;4950189;29;20039;-66
2021/11/25 12:21:02;;;;;;;35.20;20.73;;;8.80;90.60;;;;;;4950399;29;20486;-66
2021/11/25 12:23:33;;;;;;;38.08;20.15;;;8.70;90.60;;;;;;4955421;28;20078;-66
2021/11/25 12:25:59;;;;;;;33.10;19.88;;;8.70;90.70;;;;;;4959792;28;20054;-66
2021/11/25 12:28:28;;;;;;;33.42;21.00;;;8.70;90.80;;;;;;4975273;28;20471;-66
2021/11/25 12:31:08;;;;;;;31.17;20.27;;;8.70;90.80;;;;;;4971646;28;20403;-65
2021/11/25 12:33:38;;;;;;;30.63;20.05;;;8.70;90.80;;;;;;4954989;28;20046;-65
2021/11/25 12:36:05;;;;;;;30.25;19.40;;;8.70;90.80;;;;;;4951579;28;20034;-65
2021/11/25 12:38:38;;;;;;;30.02;18.48;;;8.70;90.80;;;;;;4945886;28;20039;-67
2021/11/25 12:41:10;;;;;;;30.08;19.98;;;8.70;90.80;;;;;;4941628;29;20106;-67
2021/11/25 12:43:40;;;;;;;29.35;19.52;;;8.70;90.90;;;;;;4935832;29;20043;-66
2021/11/25 12:46:10;;;;;;;27.60;18.95;;;8.70;90.90;;;;;;4944432;29;20043;-63
2021/11/25 12:48:39;;;;;;;29.63;18.15;;;8.70;91.00;;;;;;4953591;28;20097;-66
2021/11/25 12:51:11;;;;;;;33.42;19.65;;;8.80;91.00;;;;;;4938145;29;20038;-65
2021/11/25 12:53:57;;;;;;;29.13;17.98;;;8.80;91.00;;;;;;4942828;28;20407;-65
2021/11/25 12:56:34;;;;;;;30.95;19.20;;;8.70;91.00;;;;;;4957622;28;20051;-67